M I D A S
Marine Information and Data Acquisition System
Tripno 1960 of the Zeeleeuw from 2010-09-13 06:19:30 to 2010-09-13 13:52:00
Back to CruiseResearch ActivitiesStationsMapUnderway DataData graphs

EquipmentUnitsComment
TimeDGPSUTC
LatitudeDGPSDM.mWGS84
LongitudeDGPSDM.mWGS84
HeadingGyrodeg 
SOGDGPSknotsSpeed over ground
COGDGPSdegCourse over ground
DepthEcho soundermeters200 kHz
Missing or incorrect values are displayed as -999
Navigation data collected by the RV Zeeleeuw from 2010-09-13 05:56:46 to 2010-09-13 13:56:12
Time Latitude Longitude Heading SOG COG Depth
2010-09-13 05:57:51 51°13.662 2°55.96 127.6 -999 322 -999
2010-09-13 05:58:51 51°13.663 2°55.96 127.7 -999 87 -999
2010-09-13 05:59:51 51°13.663 2°55.961 127.4 0.1 88 -999
2010-09-13 06:00:51 51°13.663 2°55.96 127.6 0.2 242 -999
2010-09-13 06:01:51 51°13.663 2°55.96 126 -999 226 -999
2010-09-13 06:02:51 51°13.663 2°55.961 125.7 -999 205 -999
2010-09-13 06:03:49 51°13.662 2°55.961 128.1 0.1 172 7.2
2010-09-13 06:04:48 51°13.662 2°55.961 128 0.1 260 -999
2010-09-13 06:05:47 51°13.663 2°55.961 126.5 0.1 351 7.2
2010-09-13 06:06:48 51°13.662 2°55.961 127.4 -999 57 7.1
2010-09-13 06:07:47 51°13.662 2°55.962 128.6 -999 128 7.1
2010-09-13 06:08:47 51°13.663 2°55.96 126.8 0.3 295 7.1
2010-09-13 06:09:48 51°13.661 2°55.962 129.1 0.1 75 7.1
2010-09-13 06:10:47 51°13.661 2°55.962 129 0.1 57 7
2010-09-13 06:11:48 51°13.661 2°55.962 128.6 0.1 327 7
2010-09-13 06:12:47 51°13.661 2°55.962 121.2 0.1 199 7.1
2010-09-13 06:13:47 51°13.66 2°55.958 108.5 0.9 278 7.2
2010-09-13 06:14:51 51°13.683 2°55.865 110.3 4.7 292 -999
2010-09-13 06:15:51 51°13.704 2°55.767 97.9 3.2 282 -999
2010-09-13 06:16:49 51°13.708 2°55.746 60.3 0.6 39 14.4
2010-09-13 06:17:51 51°13.694 2°55.728 32.9 0.5 38 -999
2010-09-13 06:18:49 51°13.746 2°55.704 332.2 6.1 333 13.1
2010-09-13 06:19:48 51°13.87 2°55.603 335.6 9.8 334 11.6
2010-09-13 06:20:47 51°14.019 2°55.49 337.9 10.2 337 11.1
2010-09-13 06:21:47 51°14.175 2°55.38 336.5 10.3 334 11.4
2010-09-13 06:22:47 51°14.325 2°55.251 330.7 10.4 329 11.1
2010-09-13 06:23:47 51°14.471 2°55.11 330.8 10.1 329 11.2
2010-09-13 06:24:47 51°14.604 2°54.94 310.1 10.8 305 12.1
2010-09-13 06:25:47 51°14.644 2°54.642 264.9 12.3 261 11.9
2010-09-13 06:26:47 51°14.553 2°54.336 233.3 13.2 233 10.5
2010-09-13 06:27:47 51°14.411 2°54.068 227.9 13.3 230 10.2
2010-09-13 06:28:47 51°14.278 2°53.79 234.8 13.1 234 10.2
2010-09-13 06:29:47 51°14.155 2°53.506 235.3 13 236 10.2
2010-09-13 06:30:47 51°14.029 2°53.224 235.2 13.1 234 10.2
2010-09-13 06:31:47 51°13.904 2°52.94 235.2 13.1 235 10.6
2010-09-13 06:32:47 51°13.777 2°52.657 235.9 13.1 234 10.6
2010-09-13 06:33:47 51°13.651 2°52.37 235.2 13.2 233 10.6
2010-09-13 06:34:47 51°13.523 2°52.084 235.2 13.2 234 10.7
2010-09-13 06:35:47 51°13.395 2°51.796 235.1 13.3 234 10.7
2010-09-13 06:36:47 51°13.266 2°51.512 235.2 13.2 234 10.5
2010-09-13 06:37:47 51°13.139 2°51.224 235.1 13.3 235 10.6
2010-09-13 06:38:47 51°13.011 2°50.938 235.2 13.4 235 10.4
2010-09-13 06:39:47 51°12.883 2°50.651 235.1 13.2 236 10.4
2010-09-13 06:40:47 51°12.755 2°50.366 235.2 13.2 234 10.2
2010-09-13 06:41:47 51°12.627 2°50.08 235.2 13.2 235 9.9
2010-09-13 06:42:47 51°12.5 2°49.791 235.2 13.3 236 9.8
2010-09-13 06:43:47 51°12.396 2°49.484 244 13.2 244 9.6
2010-09-13 06:44:47 51°12.295 2°49.169 243.7 13.3 243 9.7
2010-09-13 06:45:47 51°12.195 2°48.852 243.5 13.5 244 9.8
2010-09-13 06:46:47 51°12.095 2°48.535 243.2 13.5 245 9.9
2010-09-13 06:47:47 51°11.994 2°48.218 243.2 13.4 243 9.8
2010-09-13 06:48:47 51°11.895 2°47.9 243.7 13.5 243 9.8
2010-09-13 06:49:47 51°11.795 2°47.582 243.6 13.4 244 9.7
2010-09-13 06:50:47 51°11.694 2°47.264 243.2 13.5 243 9.6
2010-09-13 06:51:47 51°11.593 2°46.946 243.4 13.5 242 9.4
2010-09-13 06:52:47 51°11.493 2°46.626 243.8 13.5 244 9.1
2010-09-13 06:53:47 51°11.392 2°46.304 243.2 13.6 245 9.2
2010-09-13 06:54:47 51°11.291 2°45.982 243.4 13.6 243 9.1
2010-09-13 06:55:47 51°11.19 2°45.661 243.7 13.6 243 9.2
2010-09-13 06:56:47 51°11.089 2°45.339 243.7 13.5 243 9
2010-09-13 06:57:47 51°10.994 2°45.034 244.3 10.7 244 9.1
2010-09-13 06:58:47 51°10.934 2°44.84 243 7 243 9
2010-09-13 06:59:47 51°10.892 2°44.706 252.1 3.8 253 9.2
2010-09-13 07:00:47 51°10.887 2°44.654 291.1 0.8 257 9.1
2010-09-13 07:01:47 51°10.881 2°44.649 304.4 0.4 187 4.5
2010-09-13 07:02:47 51°10.874 2°44.649 313.5 0.4 181 9.1
2010-09-13 07:03:47 51°10.866 2°44.651 326.4 0.5 174 9
2010-09-13 07:04:47 51°10.858 2°44.654 339.8 0.5 172 8.9
2010-09-13 07:05:47 51°10.85 2°44.655 355.2 0.5 173 9
2010-09-13 07:06:47 51°10.841 2°44.654 12 0.5 187 8.9
2010-09-13 07:07:47 51°10.833 2°44.652 25.6 0.6 192 8.7
2010-09-13 07:08:47 51°10.825 2°44.65 35.8 0.4 190 8.6
2010-09-13 07:09:47 51°10.818 2°44.647 40.7 0.4 201 8.6
2010-09-13 07:10:47 51°10.84 2°44.683 45.5 4.1 47 8.7
2010-09-13 07:11:47 51°10.908 2°44.783 36.7 6.3 33 8.8
2010-09-13 07:12:47 51°11.003 2°44.869 32.2 6.9 33 9.3
2010-09-13 07:13:47 51°11.086 2°44.992 46.5 6.9 45 9.6
2010-09-13 07:14:47 51°11.149 2°45.141 72.9 6.7 78 9.7
2010-09-13 07:15:47 51°11.102 2°45.248 154.7 4.6 167 9.3
2010-09-13 07:16:47 51°11.033 2°45.224 200.2 5.3 207 8.7
2010-09-13 07:17:47 51°10.969 2°45.134 226 4.6 227 8.5
2010-09-13 07:18:47 51°10.928 2°45.053 232.9 3.5 233 8.5
2010-09-13 07:19:47 51°10.898 2°44.984 238.9 3.1 237 8.5
2010-09-13 07:20:47 51°10.873 2°44.917 243.4 2.9 240 8.5
2010-09-13 07:21:47 51°10.85 2°44.844 249.8 3.1 246 8.3
2010-09-13 07:22:47 51°10.831 2°44.766 251.2 3.2 247 8.4
2010-09-13 07:23:47 51°10.81 2°44.687 251.2 3.3 249 8.5
2010-09-13 07:24:47 51°10.79 2°44.606 250.6 3.4 249 8.4
2010-09-13 07:25:47 51°10.768 2°44.525 250.6 3.3 248 8.3
2010-09-13 07:26:47 51°10.747 2°44.444 251.3 3.4 249 8.3
2010-09-13 07:27:47 51°10.725 2°44.361 248.5 3.4 244 8.3
2010-09-13 07:28:47 51°10.703 2°44.28 251 3.3 248 8.3
2010-09-13 07:29:47 51°10.683 2°44.196 254.4 3.4 252 8.3
2010-09-13 07:30:47 51°10.669 2°44.113 258.6 3.2 255 8.3
2010-09-13 07:31:47 51°10.655 2°44.031 259.6 3.2 256 8.4
2010-09-13 07:32:47 51°10.642 2°43.943 261.4 4.4 258 8.4
2010-09-13 07:33:47 51°10.627 2°43.846 256.1 3.3 253 8.3
2010-09-13 07:34:47 51°10.609 2°43.779 245.3 2.4 242 8.3
2010-09-13 07:35:47 51°10.589 2°43.73 237.4 2.5 238 8.2
2010-09-13 07:36:47 51°10.585 2°43.591 291 7.5 294 8.2
2010-09-13 07:37:47 51°10.685 2°43.416 314.5 10.3 308 9
2010-09-13 07:38:47 51°10.763 2°43.155 288.9 11.4 284 10.1
2010-09-13 07:39:47 51°10.796 2°42.855 283.6 11.5 284 10.9
2010-09-13 07:40:47 51°10.868 2°42.706 340 3.9 337 11.6
2010-09-13 07:41:47 51°10.878 2°42.684 28.7 1.9 227 -999
2010-09-13 07:42:50 51°10.857 2°42.651 35.5 1.5 222 4.6
2010-09-13 07:43:48 51°10.84 2°42.627 39.8 1.3 219 11.5
2010-09-13 07:44:47 51°10.825 2°42.606 42.3 1.2 212 11.5
2010-09-13 07:45:47 51°10.811 2°42.588 51.5 1.1 213 11.4
2010-09-13 07:46:47 51°10.8 2°42.571 61 0.9 222 11.3
2010-09-13 07:47:47 51°10.791 2°42.556 66.5 0.8 222 11.1
2010-09-13 07:48:47 51°10.784 2°42.545 69.4 0.5 225 11.3
2010-09-13 07:49:47 51°10.778 2°42.538 63.6 0.3 226 11.3
2010-09-13 07:50:47 51°10.776 2°42.538 54.4 1 46 11.2
2010-09-13 07:51:47 51°10.825 2°42.617 45.4 6.2 43 11.3
2010-09-13 07:52:47 51°10.896 2°42.762 60.2 7.4 60 11.5
2010-09-13 07:53:47 51°10.967 2°42.92 46.7 7.2 43 11.7
2010-09-13 07:54:47 51°11.052 2°43.053 56 6.6 61 11.8
2010-09-13 07:55:47 51°11.041 2°43.163 121.1 3.5 138 11.8
2010-09-13 07:56:47 51°10.973 2°43.187 171.6 5.7 182 11.5
2010-09-13 07:57:47 51°10.889 2°43.152 195.4 4.7 202 10.9
2010-09-13 07:58:47 51°10.827 2°43.095 207.9 4.2 213 10.7
2010-09-13 07:59:47 51°10.775 2°43.029 218.1 3.9 224 10.3
2010-09-13 08:00:47 51°10.733 2°42.955 228.5 3.7 233 10.3
2010-09-13 08:01:47 51°10.698 2°42.874 236 3.7 237 10
2010-09-13 08:02:47 51°10.667 2°42.789 243.1 3.7 244 9.8
2010-09-13 08:03:47 51°10.643 2°42.698 250.6 3.7 249 9.9
2010-09-13 08:04:47 51°10.621 2°42.605 253.1 3.8 252 9.8
2010-09-13 08:05:47 51°10.602 2°42.512 255.5 3.7 252 9.9
2010-09-13 08:06:47 51°10.585 2°42.417 258 3.8 255 9.8
2010-09-13 08:07:47 51°10.571 2°42.319 261.4 3.8 259 9.8
2010-09-13 08:08:47 51°10.559 2°42.22 265.1 3.9 262 10.1
2010-09-13 08:09:47 51°10.55 2°42.124 267.9 3.6 263 10
2010-09-13 08:10:47 51°10.545 2°42.029 272.1 3.6 267 10.3
2010-09-13 08:11:47 51°10.546 2°41.919 280.1 4.5 274 10.4
2010-09-13 08:12:47 51°10.552 2°41.804 280.8 3.7 273 10.6
2010-09-13 08:13:47 51°10.552 2°41.72 274.4 2.7 266 10.7
2010-09-13 08:14:47 51°10.547 2°41.658 267.9 2.2 261 10.7
2010-09-13 08:15:47 51°10.539 2°41.607 266.2 2.2 260 10.9
2010-09-13 08:16:47 51°10.543 2°41.522 296 4.1 289 10.8
2010-09-13 08:17:47 51°10.599 2°41.346 297 9.4 291 11.1
2010-09-13 08:18:47 51°10.655 2°41.094 296 10.3 290 11.4
2010-09-13 08:19:47 51°10.735 2°40.936 350.2 5 342 11.6
2010-09-13 08:20:47 51°10.772 2°40.928 42.2 0.5 315 11.6
2010-09-13 08:21:47 51°10.771 2°40.918 72.6 0.5 242 11.6
2010-09-13 08:22:47 51°10.766 2°40.908 78.1 0.4 223 11.5
2010-09-13 08:23:47 51°10.761 2°40.9 70.1 0.3 222 11.6
2010-09-13 08:24:47 51°10.758 2°40.893 59.5 0.4 241 11.6
2010-09-13 08:25:47 51°10.755 2°40.882 49.5 0.6 245 11.7
2010-09-13 08:26:47 51°10.752 2°40.87 41.9 0.5 259 11.6
2010-09-13 08:27:47 51°10.749 2°40.856 34 0.5 255 11.5
2010-09-13 08:28:47 51°10.745 2°40.84 25.7 0.7 252 11.5
2010-09-13 08:29:47 51°10.741 2°40.824 17 0.7 247 11.6
2010-09-13 08:30:47 51°10.763 2°40.851 64 4.2 68 11.7
2010-09-13 08:31:47 51°10.826 2°40.973 46 7.2 43 11.4
2010-09-13 08:32:47 51°10.925 2°41.103 40 7.5 34 11.3
2010-09-13 08:33:47 51°10.964 2°41.214 97.2 4.3 112 11.3
2010-09-13 08:34:47 51°10.885 2°41.263 166.2 6.7 177 11.2
2010-09-13 08:35:47 51°10.794 2°41.229 196.7 4.9 208 11.3
2010-09-13 08:36:47 51°10.733 2°41.16 213.4 4.2 220 11.3
2010-09-13 08:37:47 51°10.685 2°41.09 217.8 3.6 225 11.4
2010-09-13 08:38:47 51°10.644 2°41.025 218.6 3.4 225 11.4
2010-09-13 08:39:47 51°10.603 2°40.961 217.8 3.6 224 11.3
2010-09-13 08:40:47 51°10.56 2°40.896 218.5 3.6 224 11.3
2010-09-13 08:41:47 51°10.518 2°40.829 217.8 3.6 224 11.3
2010-09-13 08:42:47 51°10.474 2°40.763 217.9 3.6 226 11.2
2010-09-13 08:43:47 51°10.432 2°40.697 217.2 3.6 223 11.1
2010-09-13 08:44:47 51°10.391 2°40.631 216.6 3.5 223 10.9
2010-09-13 08:45:47 51°10.349 2°40.566 215.7 3.5 224 10.9
2010-09-13 08:46:47 51°10.31 2°40.499 225.9 3.4 231 10.8
2010-09-13 08:47:47 51°10.277 2°40.425 234.6 3.4 238 10.8
2010-09-13 08:48:47 51°10.251 2°40.344 245.9 3.4 247 10.7
2010-09-13 08:49:47 51°10.237 2°40.254 267.2 3.6 263 10.8
2010-09-13 08:50:47 51°10.236 2°40.165 285.9 2.9 276 10.8
2010-09-13 08:51:47 51°10.242 2°40.104 298.7 2 281 11
2010-09-13 08:52:47 51°10.248 2°40.061 308.6 1.5 285 11.4
2010-09-13 08:53:47 51°10.253 2°40.029 314.4 1.1 286 11.2
2010-09-13 08:54:47 51°10.258 2°40.002 321.3 1 288 11.3
2010-09-13 08:55:47 51°10.266 2°39.971 322 2.5 305 11.5
2010-09-13 08:56:47 51°10.288 2°39.859 278.5 6.3 272 11.8
2010-09-13 08:57:47 51°10.289 2°39.608 271.7 11.5 271 12.4
2010-09-13 08:58:47 51°10.292 2°39.288 273.1 12.5 270 13.2
2010-09-13 08:59:47 51°10.297 2°38.943 273.2 13.4 271 13.6
2010-09-13 09:00:47 51°10.301 2°38.572 270.9 14.2 270 14.1
2010-09-13 09:03:16 51°10.245 2°37.633 263.9 14.4 263 16.3
2010-09-13 09:04:28 51°10.211 2°37.176 264.3 14.4 263 16
2010-09-13 09:05:28 51°10.18 2°36.797 261.1 14.5 260 16.2
2010-09-13 09:06:28 51°10.141 2°36.418 265.2 14.5 266 16
2010-09-13 09:07:28 51°10.167 2°36.046 294 13.7 295 12.9
2010-09-13 09:08:28 51°10.34 2°35.997 32.7 11.6 33 8.9
2010-09-13 09:09:28 51°10.52 2°36.15 29.2 12.4 26 8.7
2010-09-13 09:10:28 51°10.708 2°36.291 26.7 12.6 22 9.4
2010-09-13 09:11:28 51°10.903 2°36.418 25.5 12.6 22 10
2010-09-13 09:12:28 51°11.096 2°36.546 25.9 12.5 23 10.6
2010-09-13 09:13:28 51°11.287 2°36.674 26.2 12.4 23 10.5
2010-09-13 09:14:28 51°11.478 2°36.802 26.2 12.4 23 10.4
2010-09-13 09:15:28 51°11.668 2°36.927 26.3 12.4 23 10.2
2010-09-13 09:16:28 51°11.859 2°37.053 26.2 12.4 22 9.9
2010-09-13 09:17:28 51°12.05 2°37.18 26.5 12.4 23 9.6
2010-09-13 09:18:28 51°12.24 2°37.307 26.2 12.4 23 9.6
2010-09-13 09:19:28 51°12.423 2°37.461 34.2 12.4 32 9.7
2010-09-13 09:20:28 51°12.6 2°37.629 33.7 12.4 31 10.2
2010-09-13 09:21:28 51°12.779 2°37.796 33.5 12.4 31 10.8
2010-09-13 09:22:28 51°12.945 2°37.988 44.2 12.3 44 11.5
2010-09-13 09:23:28 51°13.092 2°38.217 45.9 12.3 43 12
2010-09-13 09:24:28 51°13.238 2°38.444 46.2 12.3 44 12.3
2010-09-13 09:25:28 51°13.395 2°38.649 34.9 12.2 30 12.5
2010-09-13 09:26:28 51°13.582 2°38.792 28.9 12.5 24 12.9
2010-09-13 09:27:28 51°13.77 2°38.934 29.7 12.5 26 12.7
2010-09-13 09:28:28 51°13.957 2°39.078 30 12.5 26 11.9
2010-09-13 09:29:28 51°14.143 2°39.225 29.7 12.5 28 11.3
2010-09-13 09:30:28 51°14.33 2°39.371 29.9 12.6 27 11.5
2010-09-13 09:31:28 51°14.517 2°39.521 30.4 12.6 27 12.6
2010-09-13 09:32:28 51°14.704 2°39.671 30.5 12.6 27 13.1
2010-09-13 09:33:28 51°14.891 2°39.823 30.4 12.6 28 12.5
2010-09-13 09:34:28 51°15.077 2°39.976 29.9 12.6 27 12.5
2010-09-13 09:35:28 51°15.263 2°40.131 30.4 12.6 28 12.9
2010-09-13 09:36:28 51°15.448 2°40.288 30.4 12.5 28 13.7
2010-09-13 09:37:28 51°15.633 2°40.444 30.6 12.6 27 14.2
2010-09-13 09:38:28 51°15.82 2°40.598 27.1 12.6 21 15.2
2010-09-13 09:39:28 51°16.023 2°40.682 12.4 12.7 8 16.7
2010-09-13 09:40:28 51°16.234 2°40.699 4.4 12.7 2 18.1
2010-09-13 09:41:28 51°16.444 2°40.722 8.1 12.6 4 19.9
2010-09-13 09:42:28 51°16.654 2°40.747 8.6 12.6 4 20.8
2010-09-13 09:43:28 51°16.863 2°40.773 9.2 12.7 4 21.2
2010-09-13 09:44:28 51°17.072 2°40.797 8.8 12.6 4 21.3
2010-09-13 09:45:28 51°17.282 2°40.818 9.2 12.6 4 20.9
2010-09-13 09:46:28 51°17.492 2°40.839 9.5 12.7 3 20.1
2010-09-13 09:47:28 51°17.701 2°40.858 9.1 12.6 3 19
2010-09-13 09:48:28 51°17.911 2°40.875 9.4 12.7 2 17.4
2010-09-13 09:49:28 51°18.121 2°40.888 9.8 12.6 3 15.6
2010-09-13 09:50:28 51°18.329 2°40.903 9.5 12.5 2 15.2
2010-09-13 09:51:28 51°18.536 2°40.912 9 12.4 2 13.1
2010-09-13 09:52:28 51°18.746 2°40.927 8.8 12.5 2 16.4
2010-09-13 09:53:28 51°18.954 2°40.933 8.9 12.5 1 16.2
2010-09-13 09:54:28 51°19.159 2°40.941 10.3 12.2 4 18.2
2010-09-13 09:55:28 51°19.364 2°40.951 9.3 12.3 2 18
2010-09-13 09:56:28 51°19.568 2°40.961 9.2 12.4 2 19.2
2010-09-13 09:57:28 51°19.774 2°40.971 8.7 12.4 359 18.7
2010-09-13 09:58:28 51°19.981 2°40.98 8.8 12.4 2 21.4
2010-09-13 09:59:28 51°20.189 2°40.989 9.6 12.4 2 20.2
2010-09-13 10:00:28 51°20.397 2°40.999 9.4 12.6 2 26.3
2010-09-13 10:01:28 51°20.603 2°41.012 9.1 12.4 2 26
2010-09-13 10:02:28 51°20.808 2°41.023 9.5 12.2 2 24.9
2010-09-13 10:03:28 51°21.011 2°41.036 9.3 12.1 1 24.2
2010-09-13 10:04:32 51°21.229 2°41.058 9.3 12.5 4 24.6
2010-09-13 10:05:47 51°21.489 2°41.08 9.4 12.5 3 24.1
2010-09-13 10:06:47 51°21.682 2°41.154 37.3 11.7 35 23.8
2010-09-13 10:07:47 51°21.8 2°41.402 60.6 11.9 59 25.9
2010-09-13 10:08:47 51°21.889 2°41.681 62.5 11.8 61 24.8
2010-09-13 10:09:47 51°22 2°41.941 53.7 12 51 25.7
2010-09-13 10:10:47 51°22.155 2°42.136 37.4 11.9 34 22.7
2010-09-13 10:11:47 51°22.34 2°42.23 10.8 12.3 4 26.1
2010-09-13 10:12:47 51°22.54 2°42.263 20.4 11.9 18 25.6
2010-09-13 10:13:47 51°22.723 2°42.382 30.4 11.8 25 25
2010-09-13 10:14:47 51°22.902 2°42.513 30.3 11.8 23 25
2010-09-13 10:15:47 51°23.08 2°42.645 30.3 11.8 24 24.9
2010-09-13 10:16:47 51°23.258 2°42.777 30.7 11.8 25 24.4
2010-09-13 10:17:47 51°23.431 2°42.922 35.8 11.6 30 25.1
2010-09-13 10:18:47 51°23.598 2°43.081 36.2 11.7 31 25.2
2010-09-13 10:19:47 51°23.766 2°43.239 35.7 11.7 31 25.9
2010-09-13 10:20:47 51°23.934 2°43.396 35.1 11.6 29 22.1
2010-09-13 10:21:47 51°24.102 2°43.551 33.6 11.6 27 23.3
2010-09-13 10:22:47 51°24.275 2°43.693 32.7 11.7 27 23
2010-09-13 10:23:47 51°24.456 2°43.811 24 12 16 24.3
2010-09-13 10:24:47 51°24.645 2°43.898 22.2 11.9 15 24
2010-09-13 10:25:47 51°24.832 2°43.988 23.3 10.8 17 17.4
2010-09-13 10:26:47 51°24.937 2°43.985 351.7 4.1 325 16.4
2010-09-13 10:27:47 51°24.954 2°43.936 333.8 1.4 268 20
2010-09-13 10:28:47 51°24.949 2°43.905 314 1.1 240 21.5
2010-09-13 10:29:47 51°24.939 2°43.883 317.5 0.9 234 21.6
2010-09-13 10:30:47 51°24.928 2°43.862 332.4 1.1 229 18.9
2010-09-13 10:31:47 51°24.914 2°43.842 340.9 1 221 20.9
2010-09-13 10:32:47 51°24.903 2°43.826 343.3 0.9 219 21.6
2010-09-13 10:33:48 51°24.89 2°43.811 343.8 0.9 220 -999
2010-09-13 10:34:47 51°24.878 2°43.797 343.8 0.9 217 22.6
2010-09-13 10:35:47 51°24.864 2°43.78 345.7 1.2 218 20.1
2010-09-13 10:36:47 51°24.859 2°43.755 341 2.5 312 20.8
2010-09-13 10:37:47 51°24.931 2°43.65 331.3 7.6 320 21.3
2010-09-13 10:38:47 51°25.042 2°43.53 339.8 8.3 327 20.4
2010-09-13 10:39:47 51°25.112 2°43.379 288.8 5.9 272 21.4
2010-09-13 10:40:47 51°25.075 2°43.259 224.4 4.8 222 18.6
2010-09-13 10:41:47 51°25.011 2°43.23 157.8 3.8 173 23.2
2010-09-13 10:42:47 51°24.937 2°43.266 139.1 5 151 22.9
2010-09-13 10:43:47 51°24.888 2°43.362 99.5 4.6 113 22.6
2010-09-13 10:44:47 51°24.887 2°43.482 67.4 4.6 75 20.2
2010-09-13 10:45:47 51°24.901 2°43.578 70.8 3.3 83 19.6
2010-09-13 10:46:47 51°24.9 2°43.659 77 2.8 93 22.3
2010-09-13 10:47:47 51°24.896 2°43.751 83.4 4.1 98 20.5
2010-09-13 10:48:47 51°24.879 2°43.859 91 4.1 106 22.3
2010-09-13 10:49:47 51°24.861 2°43.962 88.6 4 105 18.8
2010-09-13 10:50:47 51°24.846 2°44.059 86.2 3.7 105 20.3
2010-09-13 10:51:47 51°24.831 2°44.154 87.2 3.7 103 22.1
2010-09-13 10:52:47 51°24.808 2°44.251 96.4 4.1 117 21.2
2010-09-13 10:53:47 51°24.773 2°44.347 103.2 4.2 122 24.6
2010-09-13 10:54:47 51°24.73 2°44.439 109.9 4.3 128 25.9
2010-09-13 10:55:47 51°24.682 2°44.526 117.7 4.5 140 25.6
2010-09-13 10:56:47 51°24.615 2°44.586 143.1 4.8 166 26.8
2010-09-13 10:57:47 51°24.536 2°44.566 192.6 5.1 203 24
2010-09-13 10:58:47 51°24.462 2°44.492 216.4 5.4 221 26.2
2010-09-13 10:59:47 51°24.398 2°44.388 226.1 4.9 226 25.3
2010-09-13 11:00:47 51°24.352 2°44.308 228.4 3.6 229 19.1
2010-09-13 11:01:47 51°24.319 2°44.249 233.4 2.6 231 23.6
2010-09-13 11:02:47 51°24.297 2°44.16 283.3 4.6 274 25.4
2010-09-13 11:03:47 51°24.348 2°43.976 308.2 10.3 302 24.9
2010-09-13 11:04:47 51°24.478 2°43.782 335.1 10.8 328 23.9
2010-09-13 11:05:47 51°24.632 2°43.63 336.1 11 325 23.1
2010-09-13 11:06:47 51°24.782 2°43.467 334.1 10.9 325 21.4
2010-09-13 11:07:47 51°24.932 2°43.308 334.7 10.7 326 22.9
2010-09-13 11:08:47 51°25.079 2°43.146 334.7 10.8 327 23.9
2010-09-13 11:09:47 51°25.227 2°42.982 335.3 10.8 326 23.2
2010-09-13 11:10:47 51°25.387 2°42.809 335.9 12.3 327 22.6
2010-09-13 11:11:47 51°25.561 2°42.646 347.7 11.8 340 23.8
2010-09-13 11:12:47 51°25.751 2°42.58 358.3 11.7 350 24.5
2010-09-13 11:13:47 51°25.943 2°42.526 357.4 11.8 350 21.7
2010-09-13 11:14:47 51°26.136 2°42.476 358.7 11.6 354 25.7
2010-09-13 11:15:47 51°26.328 2°42.432 359.8 11.7 353 26.6
2010-09-13 11:16:46 51°26.446 2°42.367 333.4 4.3 313 29.2
2010-09-13 11:17:47 51°26.467 2°42.293 313.8 2.4 286 27.8
2010-09-13 11:18:47 51°26.469 2°42.244 309.3 1.5 260 29.2
2010-09-13 11:19:47 51°26.46 2°42.219 312.1 1 221 29.4
2010-09-13 11:20:47 51°26.445 2°42.204 337.8 1.1 207 29.6
2010-09-13 11:21:47 51°26.427 2°42.189 355.8 1.3 206 29.6
2010-09-13 11:22:47 51°26.407 2°42.175 5.1 1.3 204 29.8
2010-09-13 11:23:47 51°26.387 2°42.16 12.9 1.3 210 29.6
2010-09-13 11:24:47 51°26.367 2°42.144 16.9 1.4 205 29.2
2010-09-13 11:25:47 51°26.348 2°42.128 16.2 1.3 206 29.4
2010-09-13 11:26:47 51°26.327 2°42.112 15.2 1.3 201 27.5
2010-09-13 11:27:47 51°26.31 2°42.097 11 0.6 230 27.1
2010-09-13 11:28:47 51°26.339 2°42.049 323.7 4.6 304 29
2010-09-13 11:29:46 51°26.352 2°41.901 269.8 6.8 263 28.7
2010-09-13 11:30:47 51°26.335 2°41.702 274.8 7.7 270 28.4
2010-09-13 11:31:46 51°26.391 2°41.568 352.2 4.9 340 28.5
2010-09-13 11:32:47 51°26.452 2°41.563 21.4 3 11 28.5
2010-09-13 11:33:47 51°26.494 2°41.582 27.2 2.6 13 28.3
2010-09-13 11:34:47 51°26.54 2°41.59 16.3 2.8 358 28.6
2010-09-13 11:35:47 51°26.59 2°41.575 6.2 3.1 348 29
2010-09-13 11:36:46 51°26.639 2°41.554 3.4 3.2 345 29.4
2010-09-13 11:37:47 51°26.69 2°41.539 15.8 3.1 1 30
2010-09-13 11:38:46 51°26.739 2°41.554 25.8 3.1 15 30.9
2010-09-13 11:39:47 51°26.79 2°41.568 19.7 3.1 5 31
2010-09-13 11:40:47 51°26.843 2°41.564 7.1 3.3 351 30.8
2010-09-13 11:41:47 51°26.897 2°41.548 3.7 3.1 348 32.2
2010-09-13 11:42:47 51°26.951 2°41.522 357.6 3.4 341 32
2010-09-13 11:43:47 51°27.003 2°41.49 355.4 3.4 340 32.6
2010-09-13 11:44:47 51°27.056 2°41.452 351.7 3.5 334 33.1
2010-09-13 11:45:47 51°27.108 2°41.416 352.1 3.2 338 33.6
2010-09-13 11:46:47 51°27.156 2°41.393 2.3 2.9 350 31.3
2010-09-13 11:47:47 51°27.204 2°41.398 19.7 2.8 17 31.2
2010-09-13 11:48:47 51°27.243 2°41.436 43 2.8 49 30.4
2010-09-13 11:49:46 51°27.257 2°41.508 76.1 3 92 32.1
2010-09-13 11:50:47 51°27.239 2°41.593 99.7 3.5 118 32.3
2010-09-13 11:51:47 51°27.198 2°41.665 123.5 3.4 141 31.1
2010-09-13 11:52:47 51°27.158 2°41.699 136.9 2.3 162 30.6
2010-09-13 11:53:47 51°27.128 2°41.709 147.1 1.7 179 31
2010-09-13 11:54:47 51°27.104 2°41.706 153.2 1.3 192 31.5
2010-09-13 11:55:47 51°27.085 2°41.696 160.8 1 204 31.8
2010-09-13 11:56:47 51°27.071 2°41.686 161.4 0.8 208 31.4
2010-09-13 11:57:47 51°27.046 2°41.687 149.6 3.2 164 31.3
2010-09-13 11:58:46 51°26.976 2°41.769 128.2 7.9 138 30
2010-09-13 11:59:47 51°26.841 2°41.949 131.6 11.6 138 29.8
2010-09-13 12:00:47 51°26.69 2°42.171 128.1 12.5 137 30
2010-09-13 12:01:47 51°26.538 2°42.398 130.6 12.4 138 30.2
2010-09-13 12:02:47 51°26.385 2°42.625 128.7 12.5 135 26.9
2010-09-13 12:03:47 51°26.232 2°42.853 129.4 12.5 137 26
2010-09-13 12:04:47 51°26.076 2°43.074 131.1 12.6 142 21.9
2010-09-13 12:05:47 51°25.92 2°43.298 130.7 12.7 139 26.4
2010-09-13 12:06:47 51°25.776 2°43.463 125.8 7 133 22.9
2010-09-13 12:07:47 51°25.775 2°43.546 43 1.9 32 24.9
2010-09-13 12:08:47 51°25.818 2°43.569 23.3 3.9 14 24.3
2010-09-13 12:09:47 51°25.866 2°43.563 4.8 2 336 25.5
2010-09-13 12:10:47 51°25.879 2°43.537 347.2 1.2 275 25.9
2010-09-13 12:11:47 51°25.877 2°43.508 329.8 1 255 25.3
2010-09-13 12:12:47 51°25.872 2°43.482 326.1 0.9 243 24.8
2010-09-13 12:13:47 51°25.865 2°43.463 328.3 0.8 237 24.8
2010-09-13 12:14:47 51°25.856 2°43.446 331 0.7 230 23.7
2010-09-13 12:15:47 51°25.846 2°43.43 339.7 0.9 225 21.5
2010-09-13 12:16:47 51°25.834 2°43.415 347 0.9 218 23.7
2010-09-13 12:17:47 51°25.821 2°43.402 349.2 0.9 213 24.6
2010-09-13 12:18:47 51°25.834 2°43.381 351.2 3.1 334 25.8
2010-09-13 12:19:47 51°25.909 2°43.353 9.9 5.1 2 26.1
2010-09-13 12:20:47 51°25.983 2°43.379 21.9 4 11 24.1
2010-09-13 12:21:47 51°26.051 2°43.381 7.4 4 352 23.2
2010-09-13 12:22:47 51°26.116 2°43.348 351.6 4 336 24.7
2010-09-13 12:23:47 51°26.173 2°43.307 352.8 3.6 335 25.8
2010-09-13 12:24:47 51°26.223 2°43.263 344.2 3.6 330 24.1
2010-09-13 12:25:47 51°26.271 2°43.208 337.5 3.7 321 23.7
2010-09-13 12:26:47 51°26.317 2°43.149 338.4 3.6 324 25.1
2010-09-13 12:27:47 51°26.366 2°43.091 340.2 3.7 323 22.5
2010-09-13 12:28:47 51°26.415 2°43.034 341.4 3.6 326 24.5
2010-09-13 12:29:47 51°26.466 2°42.988 348.6 3.5 335 26.2
2010-09-13 12:30:47 51°26.519 2°42.952 353.6 3.5 341 27
2010-09-13 12:31:47 51°26.576 2°42.927 3.6 3.3 352 27.3
2010-09-13 12:32:47 51°26.63 2°42.915 1.6 3.3 349 27.6
2010-09-13 12:33:47 51°26.684 2°42.894 359.7 3.3 347 25.9
2010-09-13 12:34:47 51°26.737 2°42.872 358.6 3.3 346 26.1
2010-09-13 12:35:47 51°26.787 2°42.871 21.8 2.9 16 29.8
2010-09-13 12:36:47 51°26.83 2°42.909 44.5 3 48 30.7
2010-09-13 12:37:47 51°26.849 2°42.981 77 2.7 83 30.2
2010-09-13 12:38:47 51°26.841 2°43.035 101.2 1.8 119 30.4
2010-09-13 12:39:47 51°26.824 2°43.063 116.8 1.3 146 29.9
2010-09-13 12:40:47 51°26.804 2°43.076 134 1.6 158 27.1
2010-09-13 12:41:47 51°26.733 2°43.134 143.9 8.3 151 26.7
2010-09-13 12:42:47 51°26.575 2°43.289 142 12.9 150 25.7
2010-09-13 12:43:47 51°26.382 2°43.452 147.2 13.1 156 23.7
2010-09-13 12:44:47 51°26.183 2°43.601 144 13 154 24.9
2010-09-13 12:45:47 51°25.985 2°43.751 148.5 13.3 157 25
2010-09-13 12:46:47 51°25.785 2°43.902 148.9 13.3 156 24.2
2010-09-13 12:47:47 51°25.583 2°44.058 148.8 13.6 154 24.1
2010-09-13 12:48:47 51°25.378 2°44.213 149.6 13.6 156 24
2010-09-13 12:49:47 51°25.175 2°44.374 148.2 13.9 153 22.6
2010-09-13 12:50:47 51°24.981 2°44.552 141 13.4 144 21.9
2010-09-13 12:51:47 51°24.798 2°44.755 140.1 13.4 141 25.2
2010-09-13 12:52:47 51°24.612 2°44.957 141.3 13.6 148 24.8
2010-09-13 12:53:47 51°24.428 2°45.159 140.1 12.9 147 26.6
2010-09-13 12:54:46 51°24.249 2°45.346 141.8 13.1 148 26.5
2010-09-13 12:55:47 51°24.077 2°45.563 131.5 13.2 140 27
2010-09-13 12:56:47 51°23.915 2°45.788 134.5 12.9 134 27.3
2010-09-13 12:57:47 51°23.755 2°46.018 134.6 13.1 136 28.4
2010-09-13 12:58:47 51°23.591 2°46.243 134.1 13 141 27.1
2010-09-13 12:59:47 51°23.425 2°46.47 136.2 13 136 26.2
2010-09-13 13:00:47 51°23.262 2°46.707 130.7 13.4 138 23.2
2010-09-13 13:01:47 51°23.097 2°46.941 134.3 13.1 140 22.9
2010-09-13 13:02:47 51°22.926 2°47.168 137.3 13.5 140 21.4
2010-09-13 13:03:47 51°22.756 2°47.398 137.1 13.5 140 20.1
2010-09-13 13:04:47 51°22.584 2°47.631 134 13.6 138 18.7
2010-09-13 13:05:46 51°22.417 2°47.861 130.4 13.4 136 18.1
2010-09-13 13:06:47 51°22.247 2°48.104 133.3 13.5 140 22.4
2010-09-13 13:07:47 51°22.079 2°48.34 136.6 13.5 140 24.2
2010-09-13 13:08:47 51°21.908 2°48.578 134.8 13.7 136 24.3
2010-09-13 13:09:47 51°21.741 2°48.819 132.2 13.3 140 23.9
2010-09-13 13:10:47 51°21.573 2°49.048 135.8 13.3 138 22.9
2010-09-13 13:11:47 51°21.406 2°49.281 133.2 13.2 137 21.9
2010-09-13 13:12:47 51°21.24 2°49.514 134.3 13.2 138 22.6
2010-09-13 13:13:47 51°21.079 2°49.756 132.9 13.1 133 23.4
2010-09-13 13:14:47 51°20.915 2°49.991 134.5 13.3 136 23.7
2010-09-13 13:15:47 51°20.749 2°50.223 133.6 13.3 135 23.1
2010-09-13 13:16:47 51°20.584 2°50.457 133.5 13.3 135 20.4
2010-09-13 13:17:47 51°20.415 2°50.689 135.4 13.5 145 17.3
2010-09-13 13:18:47 51°20.25 2°50.924 134.1 13.4 141 15
2010-09-13 13:19:47 51°20.081 2°51.161 134.5 13.6 139 13.9
2010-09-13 13:20:47 51°19.914 2°51.396 134.4 13.5 140 14.7
2010-09-13 13:21:47 51°19.707 2°51.517 168.5 13.4 175 16.1
2010-09-13 13:22:47 51°19.482 2°51.537 172 13.6 174 15.9
2010-09-13 13:23:47 51°19.26 2°51.591 166.3 13.5 171 16.3
2010-09-13 13:24:47 51°19.038 2°51.657 164.3 13.5 169 15.9
2010-09-13 13:25:47 51°18.814 2°51.726 166.1 13.8 169 14.9
2010-09-13 13:26:47 51°18.592 2°51.801 163.5 13.7 165 13.9
2010-09-13 13:27:47 51°18.371 2°51.884 161.7 13.6 164 12.6
2010-09-13 13:28:47 51°18.153 2°51.967 162.8 13.3 166 11.8
2010-09-13 13:29:47 51°17.935 2°52.048 163 13.3 165 12.1
2010-09-13 13:30:47 51°17.718 2°52.135 164 13.4 169 12
2010-09-13 13:31:47 51°17.497 2°52.214 165.2 13.6 166 12
2010-09-13 13:32:46 51°17.283 2°52.302 160.7 13.6 163 11.8
2010-09-13 13:33:47 51°17.067 2°52.431 158.5 13.7 156 10.8
2010-09-13 13:34:47 51°16.86 2°52.566 155.9 13.7 155 11.4
2010-09-13 13:35:47 51°16.667 2°52.749 141.9 13.7 140 12.2
2010-09-13 13:36:47 51°16.471 2°52.934 151.8 13.8 151 12.9
2010-09-13 13:37:46 51°16.269 2°53.086 153.7 13.8 155 13.2
2010-09-13 13:38:47 51°16.065 2°53.245 153.2 13.4 153 13
2010-09-13 13:39:46 51°15.88 2°53.435 144.9 13.5 146 12.9
2010-09-13 13:40:47 51°15.695 2°53.639 142.5 13.4 145 12.8
2010-09-13 13:41:47 51°15.513 2°53.847 144.6 13.3 147 12.4
2010-09-13 13:42:47 51°15.337 2°54.06 142.4 13.4 139 12
2010-09-13 13:43:46 51°15.159 2°54.262 143.9 13.3 145 11.7
2010-09-13 13:44:47 51°14.984 2°54.488 141.3 13.2 138 11.4
2010-09-13 13:45:47 51°14.815 2°54.714 143.4 13.1 138 12.6
2010-09-13 13:46:47 51°14.641 2°54.922 146.3 13.2 142 12.8
2010-09-13 13:47:47 51°14.457 2°55.112 152.2 13 151 12.3
2010-09-13 13:48:47 51°14.28 2°55.284 147.1 11.5 149 12.1
2010-09-13 13:49:47 51°14.14 2°55.402 153.6 7.8 154 12.3
2010-09-13 13:50:47 51°14.019 2°55.493 153.5 8.3 155 12
2010-09-13 13:51:47 51°13.899 2°55.579 154 7.1 155 12.3
2010-09-13 13:52:47 51°13.803 2°55.658 146.7 6.3 146 13.2
2010-09-13 13:53:47 51°13.728 2°55.774 129.8 6 130 13.2
2010-09-13 13:54:47 51°13.679 2°55.889 114.3 4.6 115 10.1
2010-09-13 13:55:47 51°13.662 2°55.959 117.7 0.4 100 7.7